Terminal Aerodrome Forecast
Issued by NWS

Home | Current Version | Previous Version | Text Only | Print | Product List | Glossary On
Versions: 1 2 3 4 5 6 7 8 9 10 11 12 13 14 15 16 17 18 19 20 21 22 23 24 25 26 27 28 29 30
000
FTUS45 KGJT 251134
TAFEGE
TAF
KEGE 251134Z 2512/2612 00000KT P6SM VCSH SCT110 BKN200
     FM251700 25015G25KT P6SM VCSH SCT100 BKN150
     FM251900 24015G30KT P6SM VCTS BKN100CB
     FM260100 26010G20KT P6SM VCSH BKN090
     FM260500 09004KT P6SM VCSH BKN080
      AMD LTD TO CLD VIS AND WIND TIL 251300=

USA.gov is the U.S. government's official web portal to all federal, state and local government web resources and services.